sensor_id;sensor_type;location;lat;lon;timestamp;P1;durP1;ratioP1;P2;durP2;ratioP2
34236;SDS011;20501;45.956;13.632;2023-02-18T00:00:21;81.85;;;37.78;;
34236;SDS011;20501;45.956;13.632;2023-02-18T00:02:47;90.70;;;39.55;;
34236;SDS011;20501;45.956;13.632;2023-02-18T00:05:14;98.65;;;44.05;;
34236;SDS011;20501;45.956;13.632;2023-02-18T00:07:40;102.95;;;42.75;;
34236;SDS011;20501;45.956;13.632;2023-02-18T00:10:09;119.43;;;48.40;;
34236;SDS011;20501;45.956;13.632;2023-02-18T00:12:37;105.70;;;44.70;;
34236;SDS011;20501;45.956;13.632;2023-02-18T00:15:03;98.13;;;42.35;;
34236;SDS011;20501;45.956;13.632;2023-02-18T00:17:29;118.78;;;49.13;;
34236;SDS011;20501;45.956;13.632;2023-02-18T00:19:54;105.53;;;46.70;;
34236;SDS011;20501;45.956;13.632;2023-02-18T00:22:21;149.90;;;58.28;;
34236;SDS011;20501;45.956;13.632;2023-02-18T00:24:46;141.88;;;57.38;;
34236;SDS011;20501;45.956;13.632;2023-02-18T00:27:12;95.95;;;41.80;;
34236;SDS011;20501;45.956;13.632;2023-02-18T00:29:37;107.28;;;45.15;;
34236;SDS011;20501;45.956;13.632;2023-02-18T00:32:03;131.48;;;51.67;;
34236;SDS011;20501;45.956;13.632;2023-02-18T00:34:28;106.13;;;45.35;;
34236;SDS011;20501;45.956;13.632;2023-02-18T00:36:54;114.50;;;45.92;;
34236;SDS011;20501;45.956;13.632;2023-02-18T00:39:19;126.90;;;51.75;;
34236;SDS011;20501;45.956;13.632;2023-02-18T00:41:44;146.18;;;57.55;;
34236;SDS011;20501;45.956;13.632;2023-02-18T00:44:10;115.40;;;43.80;;
34236;SDS011;20501;45.956;13.632;2023-02-18T00:46:37;149.15;;;59.40;;
34236;SDS011;20501;45.956;13.632;2023-02-18T00:49:03;150.30;;;59.97;;
34236;SDS011;20501;45.956;13.632;2023-02-18T00:51:28;112.35;;;47.65;;
34236;SDS011;20501;45.956;13.632;2023-02-18T00:53:54;115.38;;;49.70;;
34236;SDS011;20501;45.956;13.632;2023-02-18T00:56:24;151.88;;;59.75;;
34236;SDS011;20501;45.956;13.632;2023-02-18T00:58:49;144.45;;;57.35;;
34236;SDS011;20501;45.956;13.632;2023-02-18T01:01:16;145.48;;;58.22;;
34236;SDS011;20501;45.956;13.632;2023-02-18T01:03:42;119.35;;;47.45;;
34236;SDS011;20501;45.956;13.632;2023-02-18T01:06:08;116.47;;;48.70;;
34236;SDS011;20501;45.956;13.632;2023-02-18T01:08:35;120.45;;;48.38;;
34236;SDS011;20501;45.956;13.632;2023-02-18T01:11:01;133.30;;;53.63;;
34236;SDS011;20501;45.956;13.632;2023-02-18T01:13:28;149.02;;;59.28;;
34236;SDS011;20501;45.956;13.632;2023-02-18T01:15:54;109.70;;;45.65;;
34236;SDS011;20501;45.956;13.632;2023-02-18T01:18:20;113.85;;;47.03;;
34236;SDS011;20501;45.956;13.632;2023-02-18T01:20:46;118.07;;;45.75;;
34236;SDS011;20501;45.956;13.632;2023-02-18T01:23:11;116.30;;;47.10;;
34236;SDS011;20501;45.956;13.632;2023-02-18T01:25:38;125.73;;;49.73;;
34236;SDS011;20501;45.956;13.632;2023-02-18T01:28:04;122.05;;;49.13;;
34236;SDS011;20501;45.956;13.632;2023-02-18T01:30:31;107.32;;;44.13;;
34236;SDS011;20501;45.956;13.632;2023-02-18T01:32:57;135.02;;;55.13;;
34236;SDS011;20501;45.956;13.632;2023-02-18T01:35:23;98.83;;;43.10;;
34236;SDS011;20501;45.956;13.632;2023-02-18T01:37:48;105.80;;;44.08;;
34236;SDS011;20501;45.956;13.632;2023-02-18T01:40:16;112.38;;;48.25;;
34236;SDS011;20501;45.956;13.632;2023-02-18T01:42:44;111.22;;;44.50;;
34236;SDS011;20501;45.956;13.632;2023-02-18T01:47:58;134.77;;;55.38;;
34236;SDS011;20501;45.956;13.632;2023-02-18T01:50:55;150.77;;;57.83;;
34236;SDS011;20501;45.956;13.632;2023-02-18T01:53:27;100.78;;;44.40;;
34236;SDS011;20501;45.956;13.632;2023-02-18T01:55:57;114.95;;;47.75;;
34236;SDS011;20501;45.956;13.632;2023-02-18T01:58:27;103.97;;;46.67;;
34236;SDS011;20501;45.956;13.632;2023-02-18T02:00:53;113.57;;;47.60;;
34236;SDS011;20501;45.956;13.632;2023-02-18T02:03:18;125.93;;;50.72;;
34236;SDS011;20501;45.956;13.632;2023-02-18T02:05:43;129.18;;;52.67;;
34236;SDS011;20501;45.956;13.632;2023-02-18T02:08:09;115.18;;;49.13;;
34236;SDS011;20501;45.956;13.632;2023-02-18T02:42:49;98.35;;;43.70;;
34236;SDS011;20501;45.956;13.632;2023-02-18T02:45:53;103.88;;;43.13;;
34236;SDS011;20501;45.956;13.632;2023-02-18T02:51:26;107.07;;;45.60;;
34236;SDS011;20501;45.956;13.632;2023-02-18T02:59:47;117.32;;;48.47;;
34236;SDS011;20501;45.956;13.632;2023-02-18T03:02:24;111.88;;;47.45;;
34236;SDS011;20501;45.956;13.632;2023-02-18T03:05:19;107.45;;;47.38;;
34236;SDS011;20501;45.956;13.632;2023-02-18T03:16:48;129.57;;;57.45;;
34236;SDS011;20501;45.956;13.632;2023-02-18T03:22:44;114.47;;;49.03;;
34236;SDS011;20501;45.956;13.632;2023-02-18T03:24:50;120.38;;;51.28;;
34236;SDS011;20501;45.956;13.632;2023-02-18T03:27:22;109.57;;;48.70;;
34236;SDS011;20501;45.956;13.632;2023-02-18T03:29:54;126.78;;;55.88;;
34236;SDS011;20501;45.956;13.632;2023-02-18T03:32:21;112.88;;;49.03;;
34236;SDS011;20501;45.956;13.632;2023-02-18T03:34:54;149.40;;;61.08;;
34236;SDS011;20501;45.956;13.632;2023-02-18T03:37:24;132.15;;;56.78;;
34236;SDS011;20501;45.956;13.632;2023-02-18T03:39:51;112.07;;;49.20;;
34236;SDS011;20501;45.956;13.632;2023-02-18T03:42:24;114.15;;;50.67;;
34236;SDS011;20501;45.956;13.632;2023-02-18T03:44:51;113.40;;;49.38;;
34236;SDS011;20501;45.956;13.632;2023-02-18T03:47:17;119.13;;;50.88;;
34236;SDS011;20501;45.956;13.632;2023-02-18T03:49:42;114.22;;;47.67;;
34236;SDS011;20501;45.956;13.632;2023-02-18T03:52:07;110.60;;;47.72;;
34236;SDS011;20501;45.956;13.632;2023-02-18T03:54:33;108.43;;;48.67;;
34236;SDS011;20501;45.956;13.632;2023-02-18T03:56:58;113.40;;;49.05;;
34236;SDS011;20501;45.956;13.632;2023-02-18T03:59:24;112.93;;;49.15;;
34236;SDS011;20501;45.956;13.632;2023-02-18T04:01:49;115.72;;;48.38;;
34236;SDS011;20501;45.956;13.632;2023-02-18T04:04:14;108.10;;;48.22;;
34236;SDS011;20501;45.956;13.632;2023-02-18T04:06:40;125.70;;;54.40;;
34236;SDS011;20501;45.956;13.632;2023-02-18T04:09:05;102.20;;;46.05;;
34236;SDS011;20501;45.956;13.632;2023-02-18T04:11:34;106.80;;;49.25;;
34236;SDS011;20501;45.956;13.632;2023-02-18T04:14:00;131.88;;;54.15;;
34236;SDS011;20501;45.956;13.632;2023-02-18T04:16:26;106.45;;;46.08;;
34236;SDS011;20501;45.956;13.632;2023-02-18T04:18:51;106.63;;;47.67;;
34236;SDS011;20501;45.956;13.632;2023-02-18T04:21:16;111.95;;;48.35;;
34236;SDS011;20501;45.956;13.632;2023-02-18T04:23:42;111.13;;;47.10;;
34236;SDS011;20501;45.956;13.632;2023-02-18T04:26:07;100.60;;;44.58;;
34236;SDS011;20501;45.956;13.632;2023-02-18T04:28:32;104.65;;;47.70;;
34236;SDS011;20501;45.956;13.632;2023-02-18T04:30:58;118.47;;;49.58;;
34236;SDS011;20501;45.956;13.632;2023-02-18T04:33:23;110.63;;;47.22;;
34236;SDS011;20501;45.956;13.632;2023-02-18T04:35:49;110.25;;;47.45;;
34236;SDS011;20501;45.956;13.632;2023-02-18T04:38:14;111.78;;;47.83;;
34236;SDS011;20501;45.956;13.632;2023-02-18T04:40:40;122.60;;;51.92;;
34236;SDS011;20501;45.956;13.632;2023-02-18T04:43:05;115.40;;;48.60;;
34236;SDS011;20501;45.956;13.632;2023-02-18T04:45:30;153.18;;;60.95;;
34236;SDS011;20501;45.956;13.632;2023-02-18T04:47:56;102.03;;;45.67;;
34236;SDS011;20501;45.956;13.632;2023-02-18T04:50:21;120.68;;;48.85;;
34236;SDS011;20501;45.956;13.632;2023-02-18T04:52:47;114.50;;;49.03;;
34236;SDS011;20501;45.956;13.632;2023-02-18T04:55:13;111.00;;;48.40;;
34236;SDS011;20501;45.956;13.632;2023-02-18T04:57:39;103.20;;;46.60;;
34236;SDS011;20501;45.956;13.632;2023-02-18T05:00:05;147.88;;;60.58;;
34236;SDS011;20501;45.956;13.632;2023-02-18T05:02:32;132.23;;;55.25;;
34236;SDS011;20501;45.956;13.632;2023-02-18T05:04:58;116.00;;;50.63;;
34236;SDS011;20501;45.956;13.632;2023-02-18T05:07:23;106.63;;;45.80;;
34236;SDS011;20501;45.956;13.632;2023-02-18T05:09:49;107.15;;;48.10;;
34236;SDS011;20501;45.956;13.632;2023-02-18T05:12:15;106.95;;;48.75;;
34236;SDS011;20501;45.956;13.632;2023-02-18T05:14:40;131.88;;;52.88;;
34236;SDS011;20501;45.956;13.632;2023-02-18T05:17:05;122.85;;;50.08;;
34236;SDS011;20501;45.956;13.632;2023-02-18T05:19:31;110.35;;;48.28;;
34236;SDS011;20501;45.956;13.632;2023-02-18T05:21:56;102.38;;;43.45;;
34236;SDS011;20501;45.956;13.632;2023-02-18T05:24:22;152.60;;;61.45;;
34236;SDS011;20501;45.956;13.632;2023-02-18T05:26:47;152.65;;;64.18;;
34236;SDS011;20501;45.956;13.632;2023-02-18T05:29:12;130.32;;;51.95;;
34236;SDS011;20501;45.956;13.632;2023-02-18T05:31:38;153.90;;;61.75;;
34236;SDS011;20501;45.956;13.632;2023-02-18T05:34:04;145.75;;;60.88;;
34236;SDS011;20501;45.956;13.632;2023-02-18T05:36:29;137.75;;;57.13;;
34236;SDS011;20501;45.956;13.632;2023-02-18T05:38:54;153.02;;;62.85;;
34236;SDS011;20501;45.956;13.632;2023-02-18T05:41:20;108.97;;;47.30;;
34236;SDS011;20501;45.956;13.632;2023-02-18T05:43:45;131.40;;;53.90;;
34236;SDS011;20501;45.956;13.632;2023-02-18T05:46:29;152.60;;;61.42;;
34236;SDS011;20501;45.956;13.632;2023-02-18T05:48:55;112.90;;;48.10;;
34236;SDS011;20501;45.956;13.632;2023-02-18T05:51:20;120.25;;;50.42;;
34236;SDS011;20501;45.956;13.632;2023-02-18T05:53:45;119.22;;;50.42;;
34236;SDS011;20501;45.956;13.632;2023-02-18T05:56:11;117.38;;;50.20;;
34236;SDS011;20501;45.956;13.632;2023-02-18T05:58:36;150.95;;;61.20;;
34236;SDS011;20501;45.956;13.632;2023-02-18T06:01:02;136.35;;;56.88;;
34236;SDS011;20501;45.956;13.632;2023-02-18T06:03:27;116.75;;;48.75;;
34236;SDS011;20501;45.956;13.632;2023-02-18T06:05:53;116.18;;;51.10;;
34236;SDS011;20501;45.956;13.632;2023-02-18T06:08:18;137.55;;;56.85;;
34236;SDS011;20501;45.956;13.632;2023-02-18T06:10:47;106.80;;;46.83;;
34236;SDS011;20501;45.956;13.632;2023-02-18T06:13:12;118.85;;;50.10;;
34236;SDS011;20501;45.956;13.632;2023-02-18T06:15:38;118.30;;;49.33;;
34236;SDS011;20501;45.956;13.632;2023-02-18T06:18:04;103.22;;;46.22;;
34236;SDS011;20501;45.956;13.632;2023-02-18T06:20:30;117.30;;;48.90;;
34236;SDS011;20501;45.956;13.632;2023-02-18T06:22:55;115.00;;;49.28;;
34236;SDS011;20501;45.956;13.632;2023-02-18T06:25:21;115.85;;;49.45;;
34236;SDS011;20501;45.956;13.632;2023-02-18T06:27:46;109.80;;;48.33;;
34236;SDS011;20501;45.956;13.632;2023-02-18T06:30:11;112.40;;;48.78;;
34236;SDS011;20501;45.956;13.632;2023-02-18T06:32:37;114.85;;;49.33;;
34236;SDS011;20501;45.956;13.632;2023-02-18T06:35:03;120.63;;;51.47;;
34236;SDS011;20501;45.956;13.632;2023-02-18T06:37:28;111.18;;;47.80;;
34236;SDS011;20501;45.956;13.632;2023-02-18T06:39:54;112.30;;;48.92;;
34236;SDS011;20501;45.956;13.632;2023-02-18T06:42:19;148.73;;;60.70;;
34236;SDS011;20501;45.956;13.632;2023-02-18T06:44:45;123.32;;;51.40;;
34236;SDS011;20501;45.956;13.632;2023-02-18T06:47:10;117.88;;;49.13;;
34236;SDS011;20501;45.956;13.632;2023-02-18T06:49:35;132.70;;;54.50;;
34236;SDS011;20501;45.956;13.632;2023-02-18T06:52:02;107.43;;;49.10;;
34236;SDS011;20501;45.956;13.632;2023-02-18T06:54:28;119.88;;;49.97;;
34236;SDS011;20501;45.956;13.632;2023-02-18T06:56:54;158.55;;;63.72;;
34236;SDS011;20501;45.956;13.632;2023-02-18T06:59:19;104.20;;;45.88;;
34236;SDS011;20501;45.956;13.632;2023-02-18T07:01:44;117.60;;;49.40;;
34236;SDS011;20501;45.956;13.632;2023-02-18T07:04:10;144.57;;;59.92;;
34236;SDS011;20501;45.956;13.632;2023-02-18T07:06:35;114.90;;;51.22;;
34236;SDS011;20501;45.956;13.632;2023-02-18T07:09:00;121.78;;;50.60;;
34236;SDS011;20501;45.956;13.632;2023-02-18T07:11:26;123.25;;;53.97;;
34236;SDS011;20501;45.956;13.632;2023-02-18T07:13:51;108.70;;;48.80;;
34236;SDS011;20501;45.956;13.632;2023-02-18T07:16:17;114.32;;;48.38;;
34236;SDS011;20501;45.956;13.632;2023-02-18T07:18:42;97.43;;;42.58;;
34236;SDS011;20501;45.956;13.632;2023-02-18T07:21:07;97.78;;;43.92;;
34236;SDS011;20501;45.956;13.632;2023-02-18T07:23:33;112.65;;;50.20;;
34236;SDS011;20501;45.956;13.632;2023-02-18T07:26:02;107.03;;;47.90;;
34236;SDS011;20501;45.956;13.632;2023-02-18T07:28:38;107.28;;;47.83;;
34236;SDS011;20501;45.956;13.632;2023-02-18T07:31:04;127.93;;;54.88;;
34236;SDS011;20501;45.956;13.632;2023-02-18T07:33:30;123.10;;;54.63;;
34236;SDS011;20501;45.956;13.632;2023-02-18T07:35:57;145.65;;;60.15;;
34236;SDS011;20501;45.956;13.632;2023-02-18T07:38:25;105.93;;;47.67;;
34236;SDS011;20501;45.956;13.632;2023-02-18T07:40:51;113.63;;;51.17;;
34236;SDS011;20501;45.956;13.632;2023-02-18T07:43:17;120.85;;;52.25;;
34236;SDS011;20501;45.956;13.632;2023-02-18T07:45:43;118.95;;;54.50;;
34236;SDS011;20501;45.956;13.632;2023-02-18T07:48:09;115.40;;;51.13;;
34236;SDS011;20501;45.956;13.632;2023-02-18T07:50:34;115.75;;;52.67;;
34236;SDS011;20501;45.956;13.632;2023-02-18T07:53:02;117.38;;;52.08;;
34236;SDS011;20501;45.956;13.632;2023-02-18T07:55:28;119.30;;;53.20;;
34236;SDS011;20501;45.956;13.632;2023-02-18T07:58:23;110.95;;;51.05;;
34236;SDS011;20501;45.956;13.632;2023-02-18T08:00:50;129.77;;;57.15;;
34236;SDS011;20501;45.956;13.632;2023-02-18T08:05:43;114.07;;;49.33;;
34236;SDS011;20501;45.956;13.632;2023-02-18T08:08:13;119.82;;;52.00;;
34236;SDS011;20501;45.956;13.632;2023-02-18T08:10:40;104.57;;;48.17;;
34236;SDS011;20501;45.956;13.632;2023-02-18T08:13:06;123.43;;;52.58;;
34236;SDS011;20501;45.956;13.632;2023-02-18T08:15:31;118.85;;;53.35;;
34236;SDS011;20501;45.956;13.632;2023-02-18T08:17:56;112.10;;;50.90;;
34236;SDS011;20501;45.956;13.632;2023-02-18T08:20:22;112.47;;;52.03;;
34236;SDS011;20501;45.956;13.632;2023-02-18T08:22:47;115.65;;;51.10;;
34236;SDS011;20501;45.956;13.632;2023-02-18T08:25:13;110.15;;;52.28;;
34236;SDS011;20501;45.956;13.632;2023-02-18T08:27:38;156.77;;;68.20;;
34236;SDS011;20501;45.956;13.632;2023-02-18T08:30:04;113.32;;;51.58;;
34236;SDS011;20501;45.956;13.632;2023-02-18T08:32:29;109.13;;;50.58;;
34236;SDS011;20501;45.956;13.632;2023-02-18T08:34:55;125.25;;;55.47;;
34236;SDS011;20501;45.956;13.632;2023-02-18T08:37:20;127.13;;;55.22;;
34236;SDS011;20501;45.956;13.632;2023-02-18T08:39:46;109.70;;;51.83;;
34236;SDS011;20501;45.956;13.632;2023-02-18T08:42:11;128.35;;;54.47;;
34236;SDS011;20501;45.956;13.632;2023-02-18T08:44:37;140.18;;;57.53;;
34236;SDS011;20501;45.956;13.632;2023-02-18T08:47:02;115.03;;;52.33;;
34236;SDS011;20501;45.956;13.632;2023-02-18T08:49:28;102.22;;;47.08;;
34236;SDS011;20501;45.956;13.632;2023-02-18T08:51:53;115.65;;;51.78;;
34236;SDS011;20501;45.956;13.632;2023-02-18T08:54:19;112.13;;;48.78;;
34236;SDS011;20501;45.956;13.632;2023-02-18T08:56:44;121.00;;;52.63;;
34236;SDS011;20501;45.956;13.632;2023-02-18T08:59:10;114.10;;;51.80;;
34236;SDS011;20501;45.956;13.632;2023-02-18T09:01:35;120.95;;;52.58;;
34236;SDS011;20501;45.956;13.632;2023-02-18T09:04:01;109.50;;;49.40;;
34236;SDS011;20501;45.956;13.632;2023-02-18T09:06:26;112.13;;;51.42;;
34236;SDS011;20501;45.956;13.632;2023-02-18T09:08:52;104.20;;;48.10;;
34236;SDS011;20501;45.956;13.632;2023-02-18T09:11:17;119.22;;;52.92;;
34236;SDS011;20501;45.956;13.632;2023-02-18T09:13:43;105.45;;;49.20;;
34236;SDS011;20501;45.956;13.632;2023-02-18T09:16:10;119.32;;;53.28;;
34236;SDS011;20501;45.956;13.632;2023-02-18T09:18:38;150.57;;;62.13;;
34236;SDS011;20501;45.956;13.632;2023-02-18T09:21:05;119.32;;;53.80;;
34236;SDS011;20501;45.956;13.632;2023-02-18T09:23:32;119.35;;;53.83;;
34236;SDS011;20501;45.956;13.632;2023-02-18T09:25:58;118.20;;;52.93;;
34236;SDS011;20501;45.956;13.632;2023-02-18T09:28:24;124.90;;;53.92;;
34236;SDS011;20501;45.956;13.632;2023-02-18T09:30:50;107.00;;;49.08;;
34236;SDS011;20501;45.956;13.632;2023-02-18T09:33:17;116.35;;;54.10;;
34236;SDS011;20501;45.956;13.632;2023-02-18T09:35:43;109.63;;;51.38;;
34236;SDS011;20501;45.956;13.632;2023-02-18T09:38:10;127.68;;;56.53;;
34236;SDS011;20501;45.956;13.632;2023-02-18T09:43:03;115.85;;;51.53;;
34236;SDS011;20501;45.956;13.632;2023-02-18T09:45:29;149.20;;;61.97;;
34236;SDS011;20501;45.956;13.632;2023-02-18T09:47:55;123.32;;;53.03;;
34236;SDS011;20501;45.956;13.632;2023-02-18T09:50:22;143.57;;;64.53;;
34236;SDS011;20501;45.956;13.632;2023-02-18T09:53:09;104.28;;;46.40;;
34236;SDS011;20501;45.956;13.632;2023-02-18T09:55:37;122.53;;;52.92;;
34236;SDS011;20501;45.956;13.632;2023-02-18T09:58:12;107.78;;;48.40;;
34236;SDS011;20501;45.956;13.632;2023-02-18T10:00:41;113.40;;;51.63;;
34236;SDS011;20501;45.956;13.632;2023-02-18T10:05:54;101.28;;;48.08;;
34236;SDS011;20501;45.956;13.632;2023-02-18T10:08:28;105.72;;;47.65;;
34236;SDS011;20501;45.956;13.632;2023-02-18T10:10:57;123.40;;;54.35;;
34236;SDS011;20501;45.956;13.632;2023-02-18T10:13:24;109.00;;;48.63;;
34236;SDS011;20501;45.956;13.632;2023-02-18T10:15:52;142.65;;;63.42;;
34236;SDS011;20501;45.956;13.632;2023-02-18T10:20:47;100.53;;;46.50;;
34236;SDS011;20501;45.956;13.632;2023-02-18T10:23:16;113.38;;;50.38;;
34236;SDS011;20501;45.956;13.632;2023-02-18T10:25:45;131.80;;;57.17;;
34236;SDS011;20501;45.956;13.632;2023-02-18T10:28:12;125.80;;;56.60;;
34236;SDS011;20501;45.956;13.632;2023-02-18T10:35:52;133.25;;;57.08;;
34236;SDS011;20501;45.956;13.632;2023-02-18T10:41:34;120.18;;;52.95;;
34236;SDS011;20501;45.956;13.632;2023-02-18T10:47:12;127.45;;;53.40;;
34236;SDS011;20501;45.956;13.632;2023-02-18T10:49:46;138.50;;;57.28;;
34236;SDS011;20501;45.956;13.632;2023-02-18T10:52:48;116.78;;;50.80;;
34236;SDS011;20501;45.956;13.632;2023-02-18T10:55:16;122.65;;;52.63;;
34236;SDS011;20501;45.956;13.632;2023-02-18T10:57:49;140.17;;;60.80;;
34236;SDS011;20501;45.956;13.632;2023-02-18T11:00:21;134.07;;;58.08;;
34236;SDS011;20501;45.956;13.632;2023-02-18T11:05:43;128.63;;;55.65;;
34236;SDS011;20501;45.956;13.632;2023-02-18T11:08:13;142.45;;;58.53;;
34236;SDS011;20501;45.956;13.632;2023-02-18T11:10:45;125.50;;;54.22;;
34236;SDS011;20501;45.956;13.632;2023-02-18T11:13:13;137.30;;;57.53;;
34236;SDS011;20501;45.956;13.632;2023-02-18T11:16:35;116.60;;;51.38;;
34236;SDS011;20501;45.956;13.632;2023-02-18T11:18:41;130.00;;;56.58;;
34236;SDS011;20501;45.956;13.632;2023-02-18T11:21:21;100.55;;;45.03;;
34236;SDS011;20501;45.956;13.632;2023-02-18T11:23:51;126.10;;;53.58;;
34236;SDS011;20501;45.956;13.632;2023-02-18T11:26:24;135.55;;;55.25;;
34236;SDS011;20501;45.956;13.632;2023-02-18T11:28:56;129.18;;;54.53;;
34236;SDS011;20501;45.956;13.632;2023-02-18T11:31:26;108.10;;;46.75;;
34236;SDS011;20501;45.956;13.632;2023-02-18T11:34:01;120.25;;;51.25;;
34236;SDS011;20501;45.956;13.632;2023-02-18T11:36:31;106.17;;;46.07;;
34236;SDS011;20501;45.956;13.632;2023-02-18T11:39:32;124.90;;;54.78;;
34236;SDS011;20501;45.956;13.632;2023-02-18T11:41:53;100.40;;;41.42;;
34236;SDS011;20501;45.956;13.632;2023-02-18T11:47:00;104.57;;;48.78;;
34236;SDS011;20501;45.956;13.632;2023-02-18T11:49:39;114.57;;;50.38;;
34236;SDS011;20501;45.956;13.632;2023-02-18T11:55:03;99.85;;;43.58;;
34236;SDS011;20501;45.956;13.632;2023-02-18T11:57:33;86.57;;;39.17;;
34236;SDS011;20501;45.956;13.632;2023-02-18T12:00:01;99.00;;;46.65;;
34236;SDS011;20501;45.956;13.632;2023-02-18T12:05:36;86.10;;;40.53;;
34236;SDS011;20501;45.956;13.632;2023-02-18T12:14:11;103.32;;;47.55;;
34236;SDS011;20501;45.956;13.632;2023-02-18T12:32:49;100.88;;;44.75;;
34236;SDS011;20501;45.956;13.632;2023-02-18T12:42:01;77.80;;;36.70;;
34236;SDS011;20501;45.956;13.632;2023-02-18T12:55:33;83.60;;;39.42;;
34236;SDS011;20501;45.956;13.632;2023-02-18T12:58:09;82.43;;;35.83;;
34236;SDS011;20501;45.956;13.632;2023-02-18T13:05:59;79.97;;;39.38;;
34236;SDS011;20501;45.956;13.632;2023-02-18T13:13:44;88.68;;;42.83;;
34236;SDS011;20501;45.956;13.632;2023-02-18T13:16:12;75.70;;;36.92;;
34236;SDS011;20501;45.956;13.632;2023-02-18T13:21:43;66.40;;;31.50;;
34236;SDS011;20501;45.956;13.632;2023-02-18T13:24:13;55.60;;;28.98;;
34236;SDS011;20501;45.956;13.632;2023-02-18T13:26:46;76.80;;;38.08;;
34236;SDS011;20501;45.956;13.632;2023-02-18T13:39:54;59.70;;;30.83;;
34236;SDS011;20501;45.956;13.632;2023-02-18T13:42:35;60.85;;;30.77;;
34236;SDS011;20501;45.956;13.632;2023-02-18T13:45:02;48.22;;;26.17;;
34236;SDS011;20501;45.956;13.632;2023-02-18T13:47:46;56.75;;;29.38;;
34236;SDS011;20501;45.956;13.632;2023-02-18T13:52:49;53.95;;;26.25;;
34236;SDS011;20501;45.956;13.632;2023-02-18T13:55:49;48.22;;;24.67;;
34236;SDS011;20501;45.956;13.632;2023-02-18T13:58:22;53.45;;;27.67;;
34236;SDS011;20501;45.956;13.632;2023-02-18T14:00:55;54.28;;;28.98;;
34236;SDS011;20501;45.956;13.632;2023-02-18T14:03:31;52.60;;;28.23;;
34236;SDS011;20501;45.956;13.632;2023-02-18T14:05:57;59.25;;;30.73;;
34236;SDS011;20501;45.956;13.632;2023-02-18T14:08:36;62.37;;;32.50;;
34236;SDS011;20501;45.956;13.632;2023-02-18T14:19:39;57.83;;;28.63;;
34236;SDS011;20501;45.956;13.632;2023-02-18T14:24:54;59.03;;;29.85;;
34236;SDS011;20501;45.956;13.632;2023-02-18T14:27:24;87.40;;;40.58;;
34236;SDS011;20501;45.956;13.632;2023-02-18T14:29:50;88.47;;;42.03;;
34236;SDS011;20501;45.956;13.632;2023-02-18T14:32:16;46.08;;;24.25;;
34236;SDS011;20501;45.956;13.632;2023-02-18T14:43:26;64.25;;;29.02;;
34236;SDS011;20501;45.956;13.632;2023-02-18T14:46:08;57.15;;;28.95;;
34236;SDS011;20501;45.956;13.632;2023-02-18T14:51:35;58.33;;;28.33;;
34236;SDS011;20501;45.956;13.632;2023-02-18T14:54:04;51.47;;;26.77;;
34236;SDS011;20501;45.956;13.632;2023-02-18T14:56:40;65.57;;;30.55;;
34236;SDS011;20501;45.956;13.632;2023-02-18T14:59:21;54.17;;;25.75;;
34236;SDS011;20501;45.956;13.632;2023-02-18T15:01:52;59.65;;;28.63;;
34236;SDS011;20501;45.956;13.632;2023-02-18T15:04:19;84.70;;;41.25;;
34236;SDS011;20501;45.956;13.632;2023-02-18T15:06:44;86.38;;;38.00;;
34236;SDS011;20501;45.956;13.632;2023-02-18T15:09:14;67.38;;;29.38;;
34236;SDS011;20501;45.956;13.632;2023-02-18T15:11:48;76.53;;;35.42;;
34236;SDS011;20501;45.956;13.632;2023-02-18T15:14:18;52.20;;;29.77;;
34236;SDS011;20501;45.956;13.632;2023-02-18T15:16:47;54.75;;;28.15;;
34236;SDS011;20501;45.956;13.632;2023-02-18T15:19:20;55.65;;;28.70;;
34236;SDS011;20501;45.956;13.632;2023-02-18T15:21:49;55.30;;;29.95;;
34236;SDS011;20501;45.956;13.632;2023-02-18T15:27:04;60.03;;;31.33;;
34236;SDS011;20501;45.956;13.632;2023-02-18T15:29:41;57.97;;;28.23;;
34236;SDS011;20501;45.956;13.632;2023-02-18T15:32:14;56.70;;;30.23;;
34236;SDS011;20501;45.956;13.632;2023-02-18T15:34:45;65.72;;;33.40;;
34236;SDS011;20501;45.956;13.632;2023-02-18T15:37:14;62.60;;;33.03;;
34236;SDS011;20501;45.956;13.632;2023-02-18T15:39:40;59.30;;;32.00;;
34236;SDS011;20501;45.956;13.632;2023-02-18T15:42:10;62.60;;;33.08;;
34236;SDS011;20501;45.956;13.632;2023-02-18T15:44:38;69.85;;;34.30;;
34236;SDS011;20501;45.956;13.632;2023-02-18T15:47:10;69.82;;;33.30;;
34236;SDS011;20501;45.956;13.632;2023-02-18T15:49:36;69.82;;;34.70;;
34236;SDS011;20501;45.956;13.632;2023-02-18T15:52:03;71.45;;;35.38;;
34236;SDS011;20501;45.956;13.632;2023-02-18T15:54:29;67.95;;;34.00;;
34236;SDS011;20501;45.956;13.632;2023-02-18T15:56:59;72.43;;;35.53;;
34236;SDS011;20501;45.956;13.632;2023-02-18T15:59:31;69.70;;;35.42;;
34236;SDS011;20501;45.956;13.632;2023-02-18T16:04:33;70.85;;;34.42;;
34236;SDS011;20501;45.956;13.632;2023-02-18T16:07:04;83.53;;;37.15;;
34236;SDS011;20501;45.956;13.632;2023-02-18T16:09:43;72.00;;;34.70;;
34236;SDS011;20501;45.956;13.632;2023-02-18T16:12:14;75.22;;;37.00;;
34236;SDS011;20501;45.956;13.632;2023-02-18T16:14:52;71.90;;;36.58;;
34236;SDS011;20501;45.956;13.632;2023-02-18T16:17:19;80.23;;;37.47;;
34236;SDS011;20501;45.956;13.632;2023-02-18T16:19:54;82.50;;;37.50;;
34236;SDS011;20501;45.956;13.632;2023-02-18T16:22:23;72.55;;;36.78;;
34236;SDS011;20501;45.956;13.632;2023-02-18T16:24:49;80.78;;;38.30;;
34236;SDS011;20501;45.956;13.632;2023-02-18T16:27:20;80.95;;;39.67;;
34236;SDS011;20501;45.956;13.632;2023-02-18T16:29:49;82.63;;;40.70;;
34236;SDS011;20501;45.956;13.632;2023-02-18T16:32:16;88.05;;;41.42;;
34236;SDS011;20501;45.956;13.632;2023-02-18T16:34:41;81.35;;;38.80;;
34236;SDS011;20501;45.956;13.632;2023-02-18T16:37:08;69.18;;;34.03;;
34236;SDS011;20501;45.956;13.632;2023-02-18T16:39:52;84.22;;;37.53;;
34236;SDS011;20501;45.956;13.632;2023-02-18T16:42:19;86.32;;;38.15;;
34236;SDS011;20501;45.956;13.632;2023-02-18T16:44:44;78.53;;;36.33;;
34236;SDS011;20501;45.956;13.632;2023-02-18T16:47:13;88.05;;;39.10;;
34236;SDS011;20501;45.956;13.632;2023-02-18T16:49:41;70.03;;;34.63;;
34236;SDS011;20501;45.956;13.632;2023-02-18T16:52:10;92.07;;;40.70;;
34236;SDS011;20501;45.956;13.632;2023-02-18T16:54:40;88.47;;;42.70;;
34236;SDS011;20501;45.956;13.632;2023-02-18T16:57:05;89.35;;;41.70;;
34236;SDS011;20501;45.956;13.632;2023-02-18T16:59:31;97.35;;;44.03;;
34236;SDS011;20501;45.956;13.632;2023-02-18T17:01:56;88.05;;;39.85;;
34236;SDS011;20501;45.956;13.632;2023-02-18T17:04:21;101.45;;;43.97;;
34236;SDS011;20501;45.956;13.632;2023-02-18T17:06:47;98.97;;;45.92;;
34236;SDS011;20501;45.956;13.632;2023-02-18T17:11:45;106.80;;;47.33;;